Time;durP1;ratioP1;P1;durP2;ratioP2;P2;SDS_P1;SDS_P2;PMS_P1;PMS_P2;Temp;Humidity;BMP_temperature;BMP_pressure;BME280_temperature;BME280_humidity;BME280_pressure;Samples;Min_cycle;Max_cycle;Signal;HPM_P1;HPM_P2
2023/08/19 00:01:55;;;;;;;2.72;0.75;;;18.50;39.90;;;;;;4996768;28;20038;-62
2023/08/19 00:04:22;;;;;;;2.83;0.88;;;18.90;39.70;;;;;;4996816;28;20034;-62
2023/08/19 00:06:50;;;;;;;2.38;0.70;;;18.60;39.10;;;;;;5013041;28;20225;-63
2023/08/19 00:09:17;;;;;;;2.00;0.68;;;19.30;38.50;;;;;;4997567;28;20040;-63
2023/08/19 00:11:45;;;;;;;1.45;0.50;;;19.10;38.70;;;;;;4996652;28;20022;-63
2023/08/19 00:14:12;;;;;;;1.75;0.60;;;19.10;39.30;;;;;;4996634;28;20018;-62
2023/08/19 00:16:40;;;;;;;2.15;0.60;;;18.70;38.60;;;;;;4996451;28;20101;-63
2023/08/19 00:19:07;;;;;;;2.25;0.60;;;19.10;39.30;;;;;;5002514;28;20052;-62
2023/08/19 00:21:35;;;;;;;2.85;0.73;;;19.30;37.90;;;;;;5015933;28;20025;-62
2023/08/19 00:24:03;;;;;;;2.60;1.10;;;19.10;37.70;;;;;;5016021;28;20026;-63
2023/08/19 00:26:30;;;;;;;2.25;0.60;;;18.90;39.00;;;;;;5015905;28;20060;-63
2023/08/19 00:28:58;;;;;;;1.33;0.70;;;19.60;38.00;;;;;;5015676;28;20478;-62
2023/08/19 00:31:27;;;;;;;2.90;0.88;;;19.90;36.80;;;;;;5016528;28;20034;-62
2023/08/19 00:33:54;;;;;;;1.52;0.50;;;19.60;37.50;;;;;;5016637;28;20022;-62
2023/08/19 00:36:22;;;;;;;1.02;0.50;;;19.60;37.80;;;;;;5015575;28;20083;-62
2023/08/19 00:38:51;;;;;;;3.13;0.70;;;19.00;37.70;;;;;;5016370;28;20022;-63
2023/08/19 00:41:21;;;;;;;1.17;0.68;;;19.20;37.50;;;;;;5015783;28;20079;-63
2023/08/19 00:43:49;;;;;;;2.67;0.80;;;19.20;37.70;;;;;;5015426;28;20338;-62
2023/08/19 00:46:16;;;;;;;2.25;0.90;;;19.80;37.30;;;;;;5015388;28;20065;-64
2023/08/19 00:48:44;;;;;;;2.10;0.60;;;19.60;37.00;;;;;;5015393;28;20036;-63
2023/08/19 00:51:11;;;;;;;2.22;0.60;;;19.60;37.00;;;;;;5015331;28;20038;-63
2023/08/19 00:53:39;;;;;;;1.50;0.60;;;19.90;36.70;;;;;;5016340;28;20040;-63
2023/08/19 00:56:07;;;;;;;3.80;0.93;;;20.00;36.90;;;;;;5015364;28;20117;-63
2023/08/19 00:58:34;;;;;;;2.30;0.55;;;20.10;36.40;;;;;;5016145;28;20032;-63
2023/08/19 01:01:02;;;;;;;2.83;0.80;;;20.20;36.90;;;;;;5016185;28;20424;-63
2023/08/19 01:03:29;;;;;;;2.75;0.70;;;20.40;36.60;;;;;;5015033;28;20052;-63
2023/08/19 01:06:32;;;;;;;1.65;0.70;;;20.00;37.20;;;;;;5015139;28;20448;-63
2023/08/19 01:09:14;;;;;;;1.70;0.50;;;20.50;36.40;;;;;;4957737;28;20456;-64
2023/08/19 01:12:40;;;;;;;2.40;0.88;;;20.60;35.70;;;;;;5014973;28;20457;-63
2023/08/19 01:15:17;;;;;;;1.70;0.60;;;20.40;36.40;;;;;;4953565;28;20523;-63
2023/08/19 01:17:47;;;;;;;1.65;0.50;;;20.30;37.50;;;;;;5014903;28;20037;-63
2023/08/19 01:20:15;;;;;;;1.67;0.60;;;19.60;37.20;;;;;;5014625;28;20376;-63
2023/08/19 01:23:15;;;;;;;1.10;0.50;;;20.10;37.00;;;;;;5014788;28;20045;-63
2023/08/19 01:25:43;;;;;;;3.63;1.00;;;20.70;36.00;;;;;;5014895;28;20032;-63
2023/08/19 01:28:10;;;;;;;1.05;0.65;;;20.70;35.60;;;;;;5014762;28;20076;-63
2023/08/19 01:30:38;;;;;;;2.75;0.88;;;21.10;36.10;;;;;;5015768;28;20053;-63
2023/08/19 01:33:06;;;;;;;3.17;0.85;;;21.40;35.50;;;;;;5014844;28;20036;-63
2023/08/19 01:35:58;;;;;;;2.72;0.68;;;21.30;35.80;;;;;;5014796;28;20084;-63
2023/08/19 01:38:52;;;;;;;2.63;0.60;;;21.10;35.40;;;;;;5001908;28;20037;-63
2023/08/19 01:41:22;;;;;;;3.75;0.88;;;20.50;36.20;;;;;;4997991;28;20037;-62
2023/08/19 01:43:51;;;;;;;3.92;0.77;;;20.80;36.20;;;;;;5014594;28;20036;-62
2023/08/19 01:46:19;;;;;;;1.27;0.50;;;21.10;36.20;;;;;;5015567;28;20076;-62
2023/08/19 01:48:47;;;;;;;2.25;0.73;;;20.60;36.40;;;;;;5014527;28;20467;-63
2023/08/19 01:51:14;;;;;;;1.75;0.60;;;21.50;36.90;;;;;;5015468;28;20030;-63
2023/08/19 01:53:42;;;;;;;2.55;0.52;;;22.00;35.40;;;;;;5015382;28;20022;-62
2023/08/19 01:56:11;;;;;;;3.00;0.90;;;21.70;35.40;;;;;;5014387;28;20022;-63
2023/08/19 01:58:39;;;;;;;1.90;0.70;;;21.30;35.90;;;;;;5014386;28;20058;-63
2023/08/19 02:01:15;;;;;;;3.97;0.80;;;21.50;35.70;;;;;;5015381;28;20104;-63
2023/08/19 02:03:44;;;;;;;1.90;0.68;;;21.40;35.30;;;;;;5015369;28;20096;-62
2023/08/19 02:06:12;;;;;;;2.38;0.57;;;20.80;36.90;;;;;;5014142;28;20054;-63
2023/08/19 02:08:39;;;;;;;2.47;0.60;;;21.50;36.10;;;;;;5014200;28;20030;-62
2023/08/19 02:11:07;;;;;;;2.20;0.70;;;21.60;36.20;;;;;;5015118;28;20033;-63
2023/08/19 02:13:35;;;;;;;6.32;0.90;;;21.70;35.60;;;;;;5014277;28;20022;-62
2023/08/19 02:16:02;;;;;;;1.70;0.40;;;21.30;35.80;;;;;;5014287;28;20100;-63
2023/08/19 02:18:30;;;;;;;1.50;0.57;;;21.20;36.40;;;;;;5014946;28;20024;-63
2023/08/19 02:20:58;;;;;;;0.70;0.47;;;21.90;35.50;;;;;;5016751;28;20037;-63
2023/08/19 02:23:25;;;;;;;1.33;0.47;;;22.00;35.90;;;;;;5019336;28;20377;-63
2023/08/19 02:25:53;;;;;;;1.92;0.75;;;21.90;35.60;;;;;;5018235;28;20057;-63
2023/08/19 02:28:21;;;;;;;2.67;0.60;;;22.10;36.00;;;;;;5018141;28;20448;-64
2023/08/19 02:30:49;;;;;;;1.73;0.60;;;22.10;35.40;;;;;;5019005;28;20034;-64
2023/08/19 02:33:16;;;;;;;2.30;0.45;;;22.00;36.00;;;;;;5018072;28;20420;-64
2023/08/19 02:35:49;;;;;;;3.40;0.93;;;22.00;36.10;;;;;;5019345;28;20049;-64
2023/08/19 02:38:16;;;;;;;1.77;0.50;;;21.30;37.10;;;;;;5017950;28;20051;-60
2023/08/19 02:40:52;;;;;;;2.67;0.60;;;20.90;37.40;;;;;;5017557;28;20436;-67
2023/08/19 02:43:20;;;;;;;1.10;0.55;;;21.10;37.50;;;;;;5018825;28;20041;-67
2023/08/19 02:45:47;;;;;;;2.53;0.40;;;21.10;37.90;;;;;;5017887;28;20026;-67
2023/08/19 02:48:16;;;;;;;1.38;0.40;;;20.90;37.50;;;;;;5017761;28;20084;-66
2023/08/19 02:50:44;;;;;;;1.65;0.50;;;20.70;38.20;;;;;;5001477;28;20367;-67
2023/08/19 02:53:11;;;;;;;4.18;1.58;;;20.90;38.10;;;;;;5017962;28;20022;-68
2023/08/19 02:55:48;;;;;;;1.70;0.40;;;20.50;38.20;;;;;;5017681;28;20022;-63
2023/08/19 02:58:18;;;;;;;2.22;0.60;;;20.10;39.00;;;;;;5018209;28;20022;-67
2023/08/19 03:00:49;;;;;;;1.67;0.40;;;20.30;39.30;;;;;;5018311;28;20041;-66
2023/08/19 03:03:17;;;;;;;1.17;0.47;;;20.10;39.40;;;;;;5017273;28;20064;-68
2023/08/19 03:05:45;;;;;;;1.75;0.70;;;20.20;39.30;;;;;;5018452;28;20104;-69
2023/08/19 03:08:12;;;;;;;1.90;0.47;;;19.80;39.80;;;;;;5017446;28;20034;-67
2023/08/19 03:10:41;;;;;;;1.30;0.22;;;19.80;39.80;;;;;;5016720;28;20356;-65
2023/08/19 03:13:09;;;;;;;2.53;0.68;;;19.60;39.90;;;;;;5017068;28;20113;-68
2023/08/19 03:15:38;;;;;;;1.50;0.60;;;19.30;40.50;;;;;;5017281;28;20029;-70
2023/08/19 03:18:06;;;;;;;1.75;0.40;;;19.60;40.40;;;;;;5016536;28;20415;-69
2023/08/19 03:20:34;;;;;;;0.60;0.40;;;20.10;39.90;;;;;;5013529;28;20042;-61
2023/08/19 03:23:02;;;;;;;2.17;0.57;;;20.10;39.80;;;;;;4997316;28;20037;-64
2023/08/19 03:25:30;;;;;;;3.00;1.50;;;20.10;40.50;;;;;;5013779;28;20042;-63
2023/08/19 03:27:57;;;;;;;1.10;0.40;;;20.20;40.20;;;;;;4997216;28;20026;-63
2023/08/19 03:30:25;;;;;;;2.47;0.50;;;20.40;39.60;;;;;;4996906;28;20115;-62
2023/08/19 03:32:52;;;;;;;1.42;0.30;;;20.20;39.70;;;;;;4996557;28;20305;-61
2023/08/19 03:35:20;;;;;;;1.92;0.52;;;20.40;40.20;;;;;;4997290;28;20226;-62
2023/08/19 03:37:47;;;;;;;1.08;0.45;;;20.00;39.60;;;;;;4997185;28;20019;-62
2023/08/19 03:40:15;;;;;;;1.50;0.47;;;20.10;40.30;;;;;;4997175;28;20053;-61
2023/08/19 03:42:42;;;;;;;0.95;0.40;;;20.00;40.00;;;;;;4997234;28;20069;-61
2023/08/19 03:45:10;;;;;;;2.22;0.68;;;20.80;39.60;;;;;;4997207;28;20050;-61
2023/08/19 03:47:37;;;;;;;1.55;0.50;;;20.80;39.40;;;;;;4998062;28;20389;-62
2023/08/19 03:50:07;;;;;;;1.33;0.40;;;20.80;39.00;;;;;;4998127;28;20089;-65
2023/08/19 03:52:34;;;;;;;1.25;0.40;;;20.90;39.70;;;;;;4996791;28;20026;-63
2023/08/19 03:55:02;;;;;;;2.45;0.60;;;20.60;39.80;;;;;;4996959;28;20069;-66
2023/08/19 03:57:30;;;;;;;4.78;0.60;;;20.50;39.70;;;;;;4996962;28;20497;-62
2023/08/19 03:59:57;;;;;;;2.05;0.50;;;20.40;39.70;;;;;;4996726;28;20023;-63
2023/08/19 04:02:25;;;;;;;1.02;0.50;;;20.70;39.60;;;;;;4996764;28;20045;-62
2023/08/19 04:05:04;;;;;;;2.22;0.68;;;20.80;39.70;;;;;;4996716;28;20089;-64
2023/08/19 04:07:32;;;;;;;0.95;0.38;;;20.60;39.90;;;;;;4996754;28;20479;-61
2023/08/19 04:10:00;;;;;;;1.33;0.38;;;20.40;39.70;;;;;;4996672;28;20038;-62
2023/08/19 04:12:28;;;;;;;1.75;0.63;;;20.40;40.50;;;;;;5012833;28;20022;-62
2023/08/19 04:14:55;;;;;;;2.10;0.80;;;20.30;41.10;;;;;;4996547;28;20065;-61
2023/08/19 04:17:23;;;;;;;2.10;0.70;;;20.80;40.60;;;;;;4996570;28;20076;-62
2023/08/19 04:19:51;;;;;;;3.40;0.68;;;20.40;41.00;;;;;;5008126;28;20121;-62
2023/08/19 04:22:19;;;;;;;2.92;0.85;;;20.70;40.50;;;;;;5016062;28;20025;-62
2023/08/19 04:24:53;;;;;;;1.60;0.50;;;20.80;39.90;;;;;;5016046;28;20061;-61
2023/08/19 04:27:24;;;;;;;1.13;0.32;;;21.40;39.00;;;;;;5015985;28;20033;-61
2023/08/19 04:29:57;;;;;;;1.20;0.75;;;21.70;38.20;;;;;;5016072;28;20022;-64
2023/08/19 04:32:24;;;;;;;1.65;0.63;;;22.00;38.20;;;;;;5016517;28;20033;-61
2023/08/19 04:34:52;;;;;;;1.35;0.40;;;21.10;39.40;;;;;;5016609;28;20029;-61
2023/08/19 04:37:20;;;;;;;2.00;0.50;;;20.30;40.50;;;;;;5015748;28;20022;-62
2023/08/19 04:39:47;;;;;;;1.17;0.43;;;20.60;40.40;;;;;;4999190;28;20022;-63
2023/08/19 04:42:15;;;;;;;1.42;0.30;;;21.40;39.30;;;;;;5015593;28;20026;-60
2023/08/19 04:44:43;;;;;;;1.35;0.52;;;21.80;39.10;;;;;;5016197;28;20022;-61
2023/08/19 04:47:10;;;;;;;0.90;0.40;;;21.70;38.90;;;;;;5016344;28;20021;-64
2023/08/19 04:49:38;;;;;;;2.15;0.50;;;21.80;39.00;;;;;;5015271;28;20036;-65
2023/08/19 04:52:05;;;;;;;1.73;0.50;;;22.10;39.00;;;;;;5015357;28;20076;-65
2023/08/19 04:54:34;;;;;;;1.65;0.50;;;21.70;39.10;;;;;;5015976;28;20028;-62
2023/08/19 04:57:03;;;;;;;3.22;0.60;;;21.50;39.50;;;;;;5015325;28;20018;-63
2023/08/19 04:59:31;;;;;;;1.13;0.40;;;21.70;40.00;;;;;;5015268;28;20125;-62
2023/08/19 05:01:59;;;;;;;1.00;0.40;;;22.10;39.00;;;;;;5015223;28;20033;-62
2023/08/19 05:04:26;;;;;;;1.27;0.45;;;22.10;38.90;;;;;;5015205;28;20049;-63
2023/08/19 05:06:54;;;;;;;1.40;0.50;;;22.40;37.80;;;;;;5015207;28;20148;-62
2023/08/19 05:09:21;;;;;;;3.10;1.75;;;22.60;38.00;;;;;;5016084;28;20408;-61
2023/08/19 05:11:49;;;;;;;1.10;0.50;;;23.10;37.30;;;;;;5015093;28;20372;-61
2023/08/19 05:14:17;;;;;;;1.45;0.50;;;23.70;36.90;;;;;;5014805;28;20025;-62
2023/08/19 05:16:44;;;;;;;1.58;0.50;;;23.90;36.10;;;;;;5015849;28;20379;-62
2023/08/19 05:19:18;;;;;;;1.02;0.50;;;24.70;36.10;;;;;;5015612;28;20356;-60
2023/08/19 05:21:48;;;;;;;0.80;0.40;;;25.10;34.90;;;;;;5015113;28;20030;-61
2023/08/19 05:24:16;;;;;;;2.85;0.52;;;23.90;36.50;;;;;;4998492;28;20099;-62
2023/08/19 05:26:45;;;;;;;1.35;0.50;;;24.80;35.90;;;;;;4983136;28;20121;-67
2023/08/19 05:29:19;;;;;;;1.05;0.35;;;25.50;34.60;;;;;;5016133;28;20125;-65
2023/08/19 05:31:48;;;;;;;2.05;0.60;;;24.90;34.90;;;;;;5016119;28;20508;-69
2023/08/19 05:34:20;;;;;;;2.28;0.40;;;22.60;38.20;;;;;;5015501;28;20034;-68
2023/08/19 05:36:50;;;;;;;2.10;0.73;;;21.90;39.40;;;;;;5016735;28;20360;-69
2023/08/19 05:39:22;;;;;;;0.80;0.40;;;21.60;39.90;;;;;;5015843;28;20041;-69
2023/08/19 05:41:50;;;;;;;0.68;0.38;;;20.90;41.50;;;;;;4999284;28;20052;-70
2023/08/19 05:44:22;;;;;;;1.17;0.40;;;20.50;42.20;;;;;;5014826;28;20038;-68
2023/08/19 05:46:50;;;;;;;0.80;0.30;;;20.30;42.20;;;;;;5016491;28;20422;-63
2023/08/19 05:49:17;;;;;;;1.88;0.50;;;20.20;42.90;;;;;;5014147;28;20034;-64
2023/08/19 05:51:45;;;;;;;1.13;0.40;;;21.70;40.60;;;;;;5014220;28;20022;-63
2023/08/19 05:54:13;;;;;;;1.17;0.60;;;24.20;37.00;;;;;;5014087;28;20329;-64
2023/08/19 05:56:40;;;;;;;2.45;0.50;;;25.40;35.30;;;;;;5013755;28;20029;-63
2023/08/19 05:59:11;;;;;;;1.40;0.45;;;25.20;34.90;;;;;;5015284;28;20040;-66
2023/08/19 06:01:42;;;;;;;1.67;0.47;;;24.50;35.90;;;;;;5016551;28;20033;-64
2023/08/19 06:04:13;;;;;;;1.08;0.47;;;24.30;36.20;;;;;;5016822;28;20029;-63
2023/08/19 06:06:46;;;;;;;1.10;0.43;;;25.10;34.90;;;;;;5016381;28;20032;-62
2023/08/19 06:09:18;;;;;;;0.88;0.40;;;25.30;35.60;;;;;;5016601;28;20022;-63
2023/08/19 06:11:51;;;;;;;2.92;0.60;;;25.50;34.70;;;;;;5017262;28;20026;-63
2023/08/19 06:14:19;;;;;;;2.50;0.70;;;25.40;34.80;;;;;;5014512;28;20041;-62
2023/08/19 06:16:48;;;;;;;1.50;0.65;;;26.00;34.40;;;;;;5014057;28;20061;-62
2023/08/19 06:19:16;;;;;;;2.50;0.60;;;25.10;35.10;;;;;;5013397;28;20065;-63
2023/08/19 06:21:44;;;;;;;2.13;1.33;;;24.00;36.50;;;;;;5014436;28;20026;-62
2023/08/19 06:24:11;;;;;;;3.03;1.30;;;22.70;38.40;;;;;;5013522;28;20286;-63
2023/08/19 06:26:38;;;;;;;3.80;0.77;;;21.50;40.20;;;;;;5013775;28;20026;-63
2023/08/19 06:29:06;;;;;;;1.38;0.55;;;21.10;40.80;;;;;;5012777;28;20463;-63
2023/08/19 06:31:34;;;;;;;1.58;0.60;;;20.50;42.30;;;;;;5013844;28;20030;-63
2023/08/19 06:34:02;;;;;;;1.60;0.57;;;19.40;44.40;;;;;;5013630;28;20033;-63
2023/08/19 06:36:30;;;;;;;0.40;0.30;;;18.70;45.70;;;;;;5013419;28;20026;-63
2023/08/19 06:39:08;;;;;;;1.27;0.60;;;18.60;45.90;;;;;;5014102;28;20440;-62
2023/08/19 06:41:37;;;;;;;2.70;0.38;;;18.20;46.90;;;;;;5013517;28;20504;-63
2023/08/19 06:44:07;;;;;;;1.63;0.52;;;18.10;47.20;;;;;;5012968;28;20037;-61
2023/08/19 06:46:35;;;;;;;1.85;0.50;;;18.20;47.30;;;;;;5014134;28;20026;-62
2023/08/19 06:49:03;;;;;;;1.65;0.40;;;18.00;47.90;;;;;;5012937;28;20112;-62
2023/08/19 06:51:31;;;;;;;1.42;0.40;;;17.90;47.90;;;;;;5013131;28;20121;-63
2023/08/19 06:53:59;;;;;;;0.55;0.28;;;17.70;48.70;;;;;;5012950;28;20330;-63
2023/08/19 06:56:50;;;;;;;1.00;0.43;;;17.60;48.80;;;;;;5014201;28;20022;-62
2023/08/19 06:59:46;;;;;;;1.73;0.50;;;17.60;48.80;;;;;;4997787;28;20071;-63
2023/08/19 07:02:18;;;;;;;1.33;0.50;;;17.50;49.10;;;;;;5012810;28;20083;-63
2023/08/19 07:04:48;;;;;;;1.35;0.50;;;17.40;49.70;;;;;;5013488;28;20492;-63
2023/08/19 07:07:21;;;;;;;1.17;0.30;;;17.40;49.90;;;;;;5014561;28;20044;-62
2023/08/19 07:09:49;;;;;;;1.73;0.40;;;17.30;49.80;;;;;;5016844;28;20083;-63
2023/08/19 07:12:17;;;;;;;0.95;0.40;;;17.10;50.20;;;;;;5018051;28;20061;-63
2023/08/19 07:14:46;;;;;;;2.10;0.43;;;17.00;50.20;;;;;;5017224;28;20026;-63
2023/08/19 07:17:17;;;;;;;1.70;0.50;;;16.80;50.70;;;;;;5017167;28;20022;-63
2023/08/19 07:19:45;;;;;;;1.17;0.60;;;16.60;51.20;;;;;;5001139;28;20448;-63
2023/08/19 07:22:13;;;;;;;1.08;0.30;;;16.60;51.50;;;;;;5016948;28;20037;-63
2023/08/19 07:24:42;;;;;;;0.68;0.57;;;16.60;51.40;;;;;;5017925;28;20029;-62
2023/08/19 07:27:11;;;;;;;1.20;0.40;;;16.50;51.30;;;;;;5016875;28;20068;-62
2023/08/19 07:29:40;;;;;;;0.93;0.50;;;16.40;51.50;;;;;;5016711;28;20026;-62
2023/08/19 07:32:09;;;;;;;1.30;0.63;;;16.40;51.90;;;;;;5016846;28;20056;-63
2023/08/19 07:34:37;;;;;;;1.38;0.60;;;16.40;51.70;;;;;;5016833;28;20049;-62
2023/08/19 07:37:05;;;;;;;1.05;0.40;;;16.40;51.70;;;;;;5016949;28;20036;-62
2023/08/19 07:39:32;;;;;;;0.77;0.47;;;16.30;52.20;;;;;;5016762;28;20025;-62
2023/08/19 07:42:00;;;;;;;1.35;0.63;;;16.20;52.20;;;;;;5016799;28;20341;-62
2023/08/19 07:44:27;;;;;;;0.65;0.45;;;16.10;52.50;;;;;;5016635;28;20466;-62
2023/08/19 07:46:55;;;;;;;1.50;0.55;;;16.10;52.70;;;;;;5016730;28;20034;-62
2023/08/19 07:49:22;;;;;;;3.10;0.55;;;16.00;52.70;;;;;;5016410;28;20345;-62
2023/08/19 07:51:50;;;;;;;1.63;0.90;;;16.00;52.90;;;;;;5016427;28;20034;-62
2023/08/19 07:54:21;;;;;;;1.27;0.70;;;16.00;53.20;;;;;;5016157;28;20030;-62
2023/08/19 07:56:51;;;;;;;5.40;2.35;;;15.90;53.40;;;;;;5017517;28;20022;-63
2023/08/19 07:59:19;;;;;;;5.80;2.80;;;15.80;53.90;;;;;;5016289;28;20030;-63
2023/08/19 08:01:46;;;;;;;4.97;2.05;;;15.70;54.20;;;;;;5016364;28;20030;-64
2023/08/19 08:04:13;;;;;;;5.78;3.13;;;15.50;54.50;;;;;;5016423;28;20030;-62
2023/08/19 08:06:41;;;;;;;4.95;2.58;;;15.50;54.80;;;;;;5017256;28;20397;-62
2023/08/19 08:09:09;;;;;;;3.85;2.20;;;15.40;54.90;;;;;;5016076;28;20112;-63
2023/08/19 08:11:36;;;;;;;4.90;2.25;;;15.40;54.90;;;;;;5016072;28;20053;-63
2023/08/19 08:14:04;;;;;;;2.58;1.48;;;15.40;55.10;;;;;;5016094;28;20091;-62
2023/08/19 08:16:32;;;;;;;3.33;1.60;;;15.30;55.20;;;;;;5016882;28;20014;-62
2023/08/19 08:18:59;;;;;;;3.58;1.05;;;15.30;55.40;;;;;;5012389;28;20133;-63
2023/08/19 08:21:26;;;;;;;4.03;1.35;;;15.30;55.60;;;;;;4996303;28;20041;-64
2023/08/19 08:23:54;;;;;;;1.88;1.00;;;15.10;55.80;;;;;;4996707;28;20157;-63
2023/08/19 08:26:22;;;;;;;2.22;0.77;;;15.10;55.80;;;;;;4996221;28;20463;-63
2023/08/19 08:28:50;;;;;;;3.28;0.93;;;15.00;56.40;;;;;;5011922;28;20026;-63
2023/08/19 08:31:18;;;;;;;3.60;1.33;;;15.00;56.30;;;;;;4996134;28;20026;-63
2023/08/19 08:33:47;;;;;;;2.40;1.30;;;15.00;56.40;;;;;;4996143;28;20036;-63
2023/08/19 08:36:15;;;;;;;4.22;1.70;;;14.90;56.60;;;;;;5012427;28;20034;-63
2023/08/19 08:38:42;;;;;;;3.13;1.88;;;14.80;56.90;;;;;;4995955;28;20363;-63
2023/08/19 08:41:11;;;;;;;3.75;2.22;;;14.80;57.00;;;;;;4996970;28;20105;-63
2023/08/19 08:43:40;;;;;;;6.95;3.80;;;14.60;57.60;;;;;;4995834;28;20030;-63
2023/08/19 08:46:08;;;;;;;6.75;4.18;;;14.60;58.50;;;;;;5012173;28;20041;-62
2023/08/19 08:48:36;;;;;;;6.00;3.10;;;14.50;58.50;;;;;;4996770;28;20122;-63
2023/08/19 08:51:05;;;;;;;7.68;3.97;;;14.50;58.10;;;;;;4995637;28;20034;-63
2023/08/19 08:53:33;;;;;;;6.68;4.20;;;14.50;58.40;;;;;;4995782;28;20022;-62
2023/08/19 08:56:02;;;;;;;8.18;4.32;;;14.20;60.60;;;;;;4995665;28;20026;-62
2023/08/19 08:58:29;;;;;;;7.35;4.93;;;14.10;60.10;;;;;;4995552;28;20046;-63
2023/08/19 09:00:58;;;;;;;3.72;2.35;;;14.00;60.80;;;;;;4995620;28;20393;-64
2023/08/19 09:03:33;;;;;;;10.38;6.13;;;13.90;62.30;;;;;;4996517;28;20449;-63
2023/08/19 09:06:10;;;;;;;8.02;4.35;;;13.70;61.60;;;;;;5011921;28;20456;-62
2023/08/19 09:08:53;;;;;;;2.63;1.88;;;13.60;62.60;;;;;;4996455;28;20034;-62
2023/08/19 09:11:26;;;;;;;4.32;2.38;;;13.40;64.70;;;;;;5011911;28;20026;-63
2023/08/19 09:14:17;;;;;;;5.28;3.33;;;13.30;64.90;;;;;;4995473;28;20026;-62
2023/08/19 09:16:45;;;;;;;6.05;4.47;;;13.00;65.80;;;;;;4994902;28;20022;-62
2023/08/19 09:19:13;;;;;;;6.35;4.75;;;12.80;66.10;;;;;;4993497;28;20053;-63
2023/08/19 09:21:41;;;;;;;5.40;4.47;;;12.70;66.30;;;;;;4994966;28;20041;-62
2023/08/19 09:24:09;;;;;;;4.82;3.88;;;12.60;66.90;;;;;;5010966;28;20030;-63
2023/08/19 09:26:40;;;;;;;4.93;3.85;;;12.60;66.80;;;;;;5011516;28;20054;-62
2023/08/19 09:29:07;;;;;;;6.70;4.70;;;12.50;67.60;;;;;;4994980;28;20029;-62
2023/08/19 09:31:38;;;;;;;6.40;5.07;;;12.30;67.50;;;;;;5011127;28;20038;-63
2023/08/19 09:34:06;;;;;;;6.80;5.20;;;12.40;67.50;;;;;;4995187;28;20499;-63
2023/08/19 09:36:33;;;;;;;7.03;5.53;;;12.30;67.90;;;;;;5011409;28;20500;-62
2023/08/19 09:39:01;;;;;;;9.57;7.53;;;12.10;68.60;;;;;;4995932;28;20022;-63
2023/08/19 09:41:30;;;;;;;8.57;7.65;;;12.00;69.20;;;;;;4995003;28;20038;-62
2023/08/19 09:43:57;;;;;;;10.55;7.47;;;12.00;69.50;;;;;;5010704;28;20049;-62
2023/08/19 09:46:35;;;;;;;8.52;6.65;;;12.10;68.80;;;;;;4994899;28;20030;-62
2023/08/19 09:49:03;;;;;;;7.90;6.38;;;12.10;69.40;;;;;;4995878;28;20030;-64
2023/08/19 09:51:31;;;;;;;5.78;4.93;;;12.10;69.30;;;;;;5010962;28;20081;-63
2023/08/19 09:54:09;;;;;;;5.28;3.85;;;12.20;69.30;;;;;;4993976;28;20033;-62
2023/08/19 09:56:37;;;;;;;5.30;3.40;;;12.30;68.00;;;;;;4979062;28;20441;-63
2023/08/19 09:59:06;;;;;;;4.57;3.40;;;12.30;67.90;;;;;;4995065;28;20037;-62
2023/08/19 10:01:36;;;;;;;4.40;3.22;;;12.30;68.30;;;;;;4994696;28;20483;-63
2023/08/19 10:04:04;;;;;;;4.68;3.40;;;12.30;68.00;;;;;;4995664;28;20445;-63
2023/08/19 10:06:36;;;;;;;6.18;3.53;;;12.40;67.60;;;;;;4994669;28;20026;-63
2023/08/19 10:09:08;;;;;;;6.43;4.30;;;12.20;68.20;;;;;;4994623;28;20026;-67
2023/08/19 10:11:38;;;;;;;6.95;4.50;;;12.10;68.30;;;;;;5010999;28;20121;-66
2023/08/19 10:14:07;;;;;;;5.72;4.53;;;12.00;68.80;;;;;;4994601;28;20117;-67
2023/08/19 10:16:41;;;;;;;7.05;4.57;;;12.00;68.70;;;;;;4994439;28;20105;-66
2023/08/19 10:19:10;;;;;;;8.05;5.43;;;11.90;69.30;;;;;;4994455;28;20039;-66
2023/08/19 10:21:40;;;;;;;7.78;5.07;;;11.70;70.10;;;;;;4978684;28;20077;-66
2023/08/19 10:24:09;;;;;;;8.50;4.78;;;11.70;69.80;;;;;;4994470;28;20073;-67
2023/08/19 10:26:38;;;;;;;6.90;5.00;;;11.70;69.70;;;;;;4994395;28;20364;-66
2023/08/19 10:29:08;;;;;;;8.40;5.65;;;11.80;69.70;;;;;;5010678;28;20030;-65
2023/08/19 10:31:36;;;;;;;7.45;5.45;;;11.50;71.00;;;;;;4994375;28;20125;-66
2023/08/19 10:34:33;;;;;;;8.65;6.10;;;11.50;71.40;;;;;;5010737;28;20061;-66
2023/08/19 10:37:11;;;;;;;7.68;5.80;;;11.50;71.00;;;;;;4986904;28;20049;-67
2023/08/19 10:39:39;;;;;;;9.02;6.10;;;11.30;71.30;;;;;;4994134;28;20033;-65
2023/08/19 10:42:07;;;;;;;9.02;6.68;;;11.30;71.40;;;;;;4995374;28;20388;-65
2023/08/19 10:44:37;;;;;;;9.63;6.90;;;11.40;71.30;;;;;;4998205;28;20030;-65
2023/08/19 10:47:15;;;;;;;8.02;5.70;;;11.30;72.00;;;;;;4982139;28;20085;-66
2023/08/19 10:49:43;;;;;;;7.65;5.80;;;11.30;72.00;;;;;;4998715;28;20030;-66
2023/08/19 10:52:21;;;;;;;6.28;5.07;;;11.10;72.60;;;;;;4997720;28;20054;-65
2023/08/19 10:54:48;;;;;;;5.95;4.85;;;10.80;73.70;;;;;;4998076;28;20337;-65
2023/08/19 10:57:25;;;;;;;7.55;5.35;;;10.90;74.10;;;;;;4997866;28;20034;-66
2023/08/19 10:59:57;;;;;;;7.03;4.40;;;10.90;73.90;;;;;;4997870;28;20038;-66
2023/08/19 11:02:27;;;;;;;6.35;4.57;;;10.80;74.20;;;;;;5014263;28;20125;-66
2023/08/19 11:04:55;;;;;;;5.55;3.92;;;10.90;73.90;;;;;;4998816;28;20030;-67
2023/08/19 11:07:24;;;;;;;6.35;4.20;;;10.90;74.00;;;;;;4997813;28;20113;-66
2023/08/19 11:09:56;;;;;;;7.20;4.47;;;10.80;74.40;;;;;;5013989;28;20464;-67
2023/08/19 11:12:29;;;;;;;7.78;4.40;;;10.60;74.90;;;;;;4998635;28;20420;-66
2023/08/19 11:14:56;;;;;;;6.53;4.55;;;10.60;74.70;;;;;;4997742;28;20031;-65
2023/08/19 11:17:34;;;;;;;5.93;4.15;;;10.60;74.60;;;;;;4997617;28;20041;-66
2023/08/19 11:20:11;;;;;;;4.75;3.45;;;10.60;74.80;;;;;;5013942;28;20046;-67
2023/08/19 11:22:47;;;;;;;7.40;4.20;;;10.70;74.40;;;;;;4998431;28;20030;-66
2023/08/19 11:25:16;;;;;;;5.47;3.55;;;10.70;74.00;;;;;;4997884;28;20042;-66
2023/08/19 11:27:43;;;;;;;6.43;3.97;;;10.70;74.30;;;;;;4998347;28;20072;-66
2023/08/19 11:30:12;;;;;;;4.93;3.95;;;10.70;74.20;;;;;;5013772;28;20034;-66
2023/08/19 11:32:45;;;;;;;8.45;4.30;;;10.70;73.90;;;;;;4998286;28;20033;-65
2023/08/19 11:35:12;;;;;;;5.75;4.20;;;10.70;73.90;;;;;;5013857;28;20026;-65
2023/08/19 11:37:43;;;;;;;7.35;4.30;;;10.70;75.00;;;;;;4997224;28;20119;-66
2023/08/19 11:40:13;;;;;;;7.28;5.03;;;10.60;74.70;;;;;;4998302;28;20025;-66
2023/08/19 11:42:40;;;;;;;6.72;4.65;;;10.50;75.20;;;;;;4997221;28;20142;-66
2023/08/19 11:45:12;;;;;;;7.10;4.65;;;10.40;75.80;;;;;;4998232;28;20073;-65
2023/08/19 11:47:40;;;;;;;7.15;4.88;;;10.00;77.30;;;;;;4997058;28;20503;-66
2023/08/19 11:50:10;;;;;;;8.57;5.03;;;9.90;78.30;;;;;;5013450;28;20415;-66
2023/08/19 11:52:38;;;;;;;7.28;4.78;;;9.90;78.10;;;;;;4996580;28;20026;-66
2023/08/19 11:55:09;;;;;;;8.30;4.55;;;10.00;78.00;;;;;;4996946;28;20334;-67
2023/08/19 11:57:37;;;;;;;7.45;5.30;;;10.00;78.00;;;;;;4997876;28;20037;-65
2023/08/19 12:00:15;;;;;;;7.38;4.97;;;10.00;77.70;;;;;;4996805;28;20022;-66
2023/08/19 12:02:44;;;;;;;9.13;5.43;;;10.10;77.30;;;;;;4981047;28;20052;-66
2023/08/19 12:05:12;;;;;;;9.93;5.80;;;10.00;77.20;;;;;;5013148;28;20032;-66
2023/08/19 12:07:44;;;;;;;9.90;5.70;;;10.00;76.90;;;;;;4997672;28;20101;-66
2023/08/19 12:10:12;;;;;;;9.48;5.15;;;10.00;77.00;;;;;;4997760;28;20380;-66
2023/08/19 12:12:43;;;;;;;6.82;5.15;;;10.00;77.10;;;;;;4996570;28;20037;-66
2023/08/19 12:15:13;;;;;;;9.23;6.15;;;10.00;76.90;;;;;;4997032;28;20453;-65
2023/08/19 12:17:41;;;;;;;10.00;5.97;;;9.90;77.70;;;;;;4996477;28;20049;-66
2023/08/19 12:20:09;;;;;;;7.25;5.15;;;9.90;77.60;;;;;;4996397;28;20469;-66
2023/08/19 12:22:36;;;;;;;7.07;5.18;;;9.90;77.60;;;;;;5012823;28;20125;-66
2023/08/19 12:25:04;;;;;;;8.38;5.32;;;9.90;77.00;;;;;;4998012;28;20461;-66
2023/08/19 12:27:31;;;;;;;9.10;5.88;;;10.00;77.40;;;;;;4996374;28;20030;-66
2023/08/19 12:29:59;;;;;;;9.45;5.32;;;9.90;77.50;;;;;;4996239;28;20551;-66
2023/08/19 12:32:27;;;;;;;6.35;5.15;;;10.00;77.20;;;;;;4997242;28;20030;-66
2023/08/19 12:34:55;;;;;;;7.78;5.95;;;9.90;77.70;;;;;;5012664;28;20057;-67
2023/08/19 12:37:23;;;;;;;9.40;5.53;;;9.90;78.10;;;;;;4996116;28;20026;-66
2023/08/19 12:39:50;;;;;;;8.93;5.60;;;9.70;78.70;;;;;;4996055;28;20105;-66
2023/08/19 12:42:18;;;;;;;8.35;5.28;;;9.60;78.90;;;;;;5012466;28;20040;-67
2023/08/19 12:44:46;;;;;;;7.00;5.15;;;9.60;79.10;;;;;;4996012;28;20034;-68
2023/08/19 12:47:13;;;;;;;9.00;5.72;;;9.70;78.60;;;;;;4996968;28;20030;-66
2023/08/19 12:49:41;;;;;;;7.40;5.07;;;9.60;78.50;;;;;;4995827;28;20437;-66
2023/08/19 12:52:08;;;;;;;9.25;5.50;;;9.50;79.10;;;;;;4995849;28;20034;-66
2023/08/19 12:54:36;;;;;;;8.70;6.00;;;9.30;80.00;;;;;;4995900;28;20030;-66
2023/08/19 12:57:04;;;;;;;8.65;6.05;;;9.10;80.70;;;;;;4996786;28;20097;-67
2023/08/19 12:59:31;;;;;;;7.95;6.03;;;9.30;80.10;;;;;;4995658;28;20405;-67
2023/08/19 13:01:59;;;;;;;8.15;6.22;;;9.40;79.70;;;;;;4995643;28;20157;-67